createdAt,value
2023-05-07T00:00:25.532Z,10.40
2023-05-07T00:03:22.601Z,15.48
2023-05-07T00:06:09.077Z,26.17
2023-05-07T00:08:57.081Z,15.35
2023-05-07T00:11:42.895Z,10.23
2023-05-07T00:14:29.471Z,9.73
2023-05-07T00:17:15.335Z,10.60
2023-05-07T00:20:01.669Z,11.13
2023-05-07T00:22:48.228Z,11.88
2023-05-07T00:25:34.345Z,15.23
2023-05-07T00:28:20.564Z,12.93
2023-05-07T00:31:07.051Z,18.52
2023-05-07T00:33:53.177Z,32.13
2023-05-07T00:36:39.092Z,67.57
2023-05-07T00:39:25.105Z,18.75
2023-05-07T00:42:11.409Z,24.33
2023-05-07T00:44:57.707Z,16.52
2023-05-07T00:47:44.342Z,13.68
2023-05-07T00:50:30.602Z,14.48
2023-05-07T00:53:17.026Z,13.40
2023-05-07T00:56:03.494Z,10.10
2023-05-07T00:58:50.286Z,12.75
2023-05-07T01:01:36.435Z,12.10
2023-05-07T01:04:22.588Z,12.38
2023-05-07T01:07:09.261Z,15.65
2023-05-07T01:09:55.856Z,35.58
2023-05-07T01:12:42.386Z,21.23
2023-05-07T01:15:28.796Z,17.48
2023-05-07T01:18:16.381Z,12.80
2023-05-07T01:21:03.154Z,13.95
2023-05-07T01:23:49.678Z,13.63
2023-05-07T01:26:36.865Z,13.25
2023-05-07T01:29:23.058Z,13.40
2023-05-07T01:32:09.812Z,14.07
2023-05-07T01:34:56.812Z,48.10
2023-05-07T01:37:43.454Z,17.10
2023-05-07T01:40:29.507Z,16.75
2023-05-07T01:43:16.525Z,24.48
2023-05-07T01:46:03.958Z,17.83
2023-05-07T01:48:51.115Z,14.48
2023-05-07T01:51:37.542Z,16.30
2023-05-07T01:54:30.236Z,24.20
2023-05-07T01:57:17.190Z,35.33
2023-05-07T02:00:06.123Z,21.23
2023-05-07T02:03:01.627Z,16.20
2023-05-07T02:06:10.521Z,12.60
2023-05-07T02:08:58.595Z,12.65
2023-05-07T02:11:45.364Z,13.35
2023-05-07T02:14:31.747Z,11.82
2023-05-07T02:17:17.539Z,11.15
2023-05-07T02:20:05.038Z,11.55
2023-05-07T02:22:51.166Z,11.10
2023-05-07T02:25:37.228Z,19.52
2023-05-07T02:28:23.667Z,11.35
2023-05-07T02:31:21.252Z,11.40
2023-05-07T02:34:07.687Z,11.25
2023-05-07T02:36:53.911Z,10.93
2023-05-07T02:39:43.239Z,11.32
2023-05-07T02:42:29.476Z,10.50
2023-05-07T02:45:15.993Z,10.25
2023-05-07T02:48:03.119Z,9.07
2023-05-07T02:50:49.599Z,10.10
2023-05-07T02:53:35.802Z,11.20
2023-05-07T02:56:22.240Z,12.05
2023-05-07T02:59:08.754Z,20.67
2023-05-07T03:04:45.872Z,12.57
2023-05-07T03:07:32.300Z,14.40
2023-05-07T03:10:19.564Z,14.07
2023-05-07T03:13:06.383Z,13.75
2023-05-07T03:15:52.149Z,14.65
2023-05-07T03:18:38.796Z,16.65
2023-05-07T03:21:25.002Z,16.02
2023-05-07T03:24:11.155Z,16.83
2023-05-07T03:26:56.867Z,16.90
2023-05-07T03:29:43.674Z,18.42
2023-05-07T03:32:29.478Z,24.15
2023-05-07T03:35:15.788Z,41.92
2023-05-07T03:38:02.566Z,24.05
2023-05-07T03:40:53.055Z,19.08
2023-05-07T03:43:39.207Z,16.30
2023-05-07T03:46:29.538Z,15.02
2023-05-07T03:49:15.882Z,14.90
2023-05-07T03:52:02.210Z,16.15
2023-05-07T03:54:48.502Z,16.08
2023-05-07T03:57:36.314Z,15.70
2023-05-07T04:00:23.291Z,15.88
2023-05-07T04:03:09.704Z,18.10
2023-05-07T04:05:56.058Z,16.83
2023-05-07T04:08:42.718Z,16.10
2023-05-07T04:11:29.005Z,16.23
2023-05-07T04:14:15.610Z,16.00
2023-05-07T04:17:01.959Z,16.38
2023-05-07T04:19:48.808Z,13.77
2023-05-07T04:22:36.309Z,13.50
2023-05-07T04:25:27.847Z,12.98
2023-05-07T04:28:19.523Z,11.25
2023-05-07T04:31:06.600Z,10.18
2023-05-07T04:33:54.896Z,9.23
2023-05-07T04:36:43.514Z,7.00
2023-05-07T04:39:31.831Z,7.05
2023-05-07T04:42:18.897Z,6.18
2023-05-07T04:45:06.310Z,6.25
2023-05-07T04:47:54.960Z,6.07
2023-05-07T04:50:40.895Z,5.55
2023-05-07T04:53:27.845Z,5.82
2023-05-07T04:56:15.900Z,5.57
2023-05-07T04:59:03.990Z,6.22
2023-05-07T05:01:50.710Z,5.93
2023-05-07T05:04:37.993Z,6.00
2023-05-07T05:07:25.082Z,5.60
2023-05-07T05:10:12.065Z,5.47
2023-05-07T05:13:00.039Z,5.30
2023-05-07T05:15:47.614Z,5.82
2023-05-07T05:18:34.006Z,5.00
2023-05-07T05:21:21.403Z,4.97
2023-05-07T05:24:10.529Z,6.10
2023-05-07T05:26:57.729Z,5.38
2023-05-07T05:29:44.616Z,5.13
2023-05-07T05:32:31.483Z,4.82
2023-05-07T05:35:17.692Z,9.07
2023-05-07T05:38:04.801Z,6.18
2023-05-07T05:40:52.260Z,5.40
2023-05-07T05:43:39.794Z,6.47
2023-05-07T05:46:26.690Z,6.22
2023-05-07T05:49:13.592Z,6.60
2023-05-07T05:52:00.587Z,14.52
2023-05-07T05:54:47.488Z,5.53
2023-05-07T05:57:34.387Z,6.20
2023-05-07T06:00:23.786Z,4.00
2023-05-07T06:03:18.528Z,6.07
2023-05-07T06:06:06.928Z,4.40
2023-05-07T06:08:53.733Z,4.88
2023-05-07T06:11:45.803Z,5.45
2023-05-07T06:14:33.356Z,5.18
2023-05-07T06:17:22.107Z,3.20
2023-05-07T06:20:11.543Z,3.00
2023-05-07T06:23:00.373Z,3.78
2023-05-07T06:25:54.086Z,3.38
2023-05-07T06:28:44.315Z,5.45
2023-05-07T06:31:33.116Z,3.10
2023-05-07T06:34:26.022Z,4.03
2023-05-07T06:37:11.874Z,2.60
2023-05-07T06:40:20.724Z,9.40
2023-05-07T06:43:08.395Z,2.92
2023-05-07T06:46:02.503Z,4.72
2023-05-07T06:48:49.109Z,2.97
2023-05-07T06:51:36.022Z,3.50
2023-05-07T06:54:24.415Z,2.35
2023-05-07T06:57:11.580Z,2.85
2023-05-07T06:59:57.833Z,2.20
2023-05-07T07:02:44.699Z,5.88
2023-05-07T07:05:32.893Z,4.43
2023-05-07T07:08:23.468Z,2.60
2023-05-07T07:11:11.388Z,2.35
2023-05-07T07:13:57.730Z,2.80
2023-05-07T07:16:43.727Z,3.50
2023-05-07T07:19:30.037Z,2.22
2023-05-07T07:22:18.133Z,3.50
2023-05-07T07:25:05.545Z,2.33
2023-05-07T07:27:51.701Z,3.20
2023-05-07T07:30:38.940Z,8.52
2023-05-07T07:33:24.939Z,3.22
2023-05-07T07:36:11.716Z,5.55
2023-05-07T07:38:58.629Z,4.63
2023-05-07T07:41:45.341Z,3.30
2023-05-07T07:44:32.262Z,2.58
2023-05-07T07:47:23.996Z,2.70
2023-05-07T07:50:14.827Z,2.70
2023-05-07T07:53:06.012Z,2.95
2023-05-07T07:55:53.128Z,2.60
2023-05-07T07:58:42.859Z,2.97
2023-05-07T08:01:31.824Z,2.28
2023-05-07T08:04:19.299Z,2.00
2023-05-07T08:07:05.769Z,2.47
2023-05-07T08:09:56.631Z,2.60
2023-05-07T08:12:44.071Z,3.25
2023-05-07T08:15:30.464Z,2.42
2023-05-07T08:18:16.542Z,2.97
2023-05-07T08:21:04.652Z,3.38
2023-05-07T08:23:51.435Z,3.10
2023-05-07T08:26:40.580Z,5.07
2023-05-07T08:29:28.014Z,2.60
2023-05-07T08:32:14.528Z,2.30
2023-05-07T08:35:01.264Z,2.25
2023-05-07T08:37:47.927Z,2.63
2023-05-07T08:40:39.122Z,2.63
2023-05-07T08:43:30.173Z,10.77
2023-05-07T08:46:24.129Z,3.30
2023-05-07T08:49:14.947Z,3.33
2023-05-07T08:52:01.597Z,3.30
2023-05-07T08:54:48.873Z,3.75
2023-05-07T08:57:36.490Z,4.45
2023-05-07T09:00:23.884Z,3.42
2023-05-07T09:03:15.569Z,3.97
2023-05-07T09:06:06.388Z,4.35
2023-05-07T09:08:54.578Z,3.60
2023-05-07T09:14:34.511Z,3.20
2023-05-07T09:17:22.459Z,27.75
2023-05-07T09:20:10.792Z,3.30
2023-05-07T09:23:00.299Z,3.25
2023-05-07T09:25:47.417Z,3.30
2023-05-07T09:28:44.386Z,3.60
2023-05-07T09:31:32.476Z,3.13
2023-05-07T09:34:19.364Z,4.45
2023-05-07T09:37:07.488Z,4.30
2023-05-07T09:39:54.237Z,3.63
2023-05-07T09:42:42.889Z,3.60
2023-05-07T09:45:30.029Z,3.90
2023-05-07T09:48:18.186Z,3.58
2023-05-07T09:51:10.660Z,4.07
2023-05-07T09:54:02.302Z,45.85
2023-05-07T09:56:50.372Z,3.80
2023-05-07T09:59:39.553Z,2.88
2023-05-07T10:02:31.599Z,2.42
2023-05-07T10:05:18.069Z,2.33
2023-05-07T10:08:05.056Z,2.15
2023-05-07T10:10:54.055Z,2.10
2023-05-07T10:13:44.743Z,2.80
2023-05-07T10:16:33.852Z,3.25
2023-05-07T10:19:20.623Z,2.08
2023-05-07T10:22:11.496Z,3.00
2023-05-07T10:25:03.995Z,1.45
2023-05-07T10:27:51.923Z,2.15
2023-05-07T10:31:13.364Z,3.05
2023-05-07T10:34:09.370Z,3.28
2023-05-07T10:36:57.547Z,2.95
2023-05-07T10:39:44.485Z,2.50
2023-05-07T10:42:31.616Z,2.30
2023-05-07T10:45:17.954Z,4.18
2023-05-07T10:51:21.818Z,1.67
2023-05-07T10:54:12.627Z,2.60
2023-05-07T10:57:29.677Z,1.50
2023-05-07T11:03:23.596Z,3.30
2023-05-07T11:06:17.055Z,4.35
2023-05-07T11:09:14.371Z,1.98
2023-05-07T11:12:13.614Z,3.55
2023-05-07T11:15:12.006Z,4.93
2023-05-07T11:18:00.833Z,4.15
2023-05-07T11:20:53.540Z,4.25
2023-05-07T11:24:04.143Z,2.80
2023-05-07T11:27:10.583Z,3.70
2023-05-07T11:29:57.418Z,2.65
2023-05-07T11:32:43.297Z,5.80
2023-05-07T11:35:30.223Z,2.67
2023-05-07T11:38:16.851Z,3.33
2023-05-07T11:41:06.376Z,3.47
2023-05-07T11:43:57.773Z,3.50
2023-05-07T11:46:45.374Z,3.25
2023-05-07T11:49:31.498Z,3.00
2023-05-07T11:52:19.809Z,4.60
2023-05-07T11:55:06.034Z,3.05
2023-05-07T11:57:52.170Z,3.00
2023-05-07T12:00:38.399Z,2.75
2023-05-07T12:03:25.082Z,2.72
2023-05-07T12:06:13.043Z,3.75
2023-05-07T12:09:02.541Z,3.28
2023-05-07T12:11:50.630Z,3.00
2023-05-07T12:14:46.102Z,3.20
2023-05-07T12:17:34.537Z,3.13
2023-05-07T12:20:21.208Z,3.20
2023-05-07T12:23:08.468Z,2.97
2023-05-07T12:25:55.395Z,2.65
2023-05-07T12:28:42.396Z,2.40
2023-05-07T12:31:30.041Z,2.70
2023-05-07T12:34:17.140Z,2.92
2023-05-07T12:37:05.182Z,2.45
2023-05-07T12:40:09.227Z,2.83
2023-05-07T12:42:57.326Z,2.75
2023-05-07T12:45:46.109Z,2.53
2023-05-07T12:48:33.621Z,3.05
2023-05-07T12:51:20.112Z,2.60
2023-05-07T12:54:07.189Z,3.33
2023-05-07T12:57:10.740Z,2.30
2023-05-07T12:59:59.378Z,2.72
2023-05-07T13:02:47.315Z,3.13
2023-05-07T13:05:34.770Z,3.90
2023-05-07T13:08:35.544Z,3.20
2023-05-07T13:11:22.768Z,2.80
2023-05-07T13:14:09.584Z,2.40
2023-05-07T13:16:57.087Z,2.55
2023-05-07T13:19:43.935Z,2.33
2023-05-07T13:22:30.744Z,3.28
2023-05-07T13:25:17.608Z,2.55
2023-05-07T13:28:10.584Z,2.88
2023-05-07T13:30:58.436Z,2.45
2023-05-07T13:33:45.045Z,2.53
2023-05-07T13:36:34.341Z,2.72
2023-05-07T13:39:21.253Z,2.90
2023-05-07T13:42:08.143Z,2.50
2023-05-07T13:44:55.014Z,2.72
2023-05-07T13:47:44.743Z,2.40
2023-05-07T13:50:31.312Z,2.80
2023-05-07T13:53:19.572Z,2.40
2023-05-07T13:56:07.139Z,2.58
2023-05-07T13:59:00.104Z,2.80
2023-05-07T14:01:48.494Z,2.70
2023-05-07T14:04:34.915Z,10.77
2023-05-07T14:07:21.909Z,3.22
2023-05-07T14:10:08.390Z,3.20
2023-05-07T14:12:55.670Z,3.05
2023-05-07T14:15:43.477Z,3.55
2023-05-07T14:18:30.855Z,2.78
2023-05-07T14:21:17.895Z,2.80
2023-05-07T14:24:05.556Z,3.53
2023-05-07T14:26:51.864Z,3.00
2023-05-07T14:29:38.122Z,2.47
2023-05-07T14:32:24.529Z,2.22
2023-05-07T14:35:11.495Z,2.33
2023-05-07T14:37:58.396Z,2.28
2023-05-07T14:40:46.476Z,2.42
2023-05-07T14:43:32.808Z,2.75
2023-05-07T14:46:20.852Z,2.92
2023-05-07T14:49:13.620Z,2.70
2023-05-07T14:52:04.340Z,2.38
2023-05-07T14:54:53.332Z,2.70
2023-05-07T14:57:42.607Z,2.55
2023-05-07T15:00:30.438Z,2.92
2023-05-07T15:03:18.398Z,2.40
2023-05-07T15:06:05.752Z,2.78
2023-05-07T15:08:52.067Z,2.30
2023-05-07T15:11:38.104Z,2.60
2023-05-07T15:14:24.625Z,2.50
2023-05-07T15:17:11.109Z,2.50
2023-05-07T15:19:57.499Z,2.47
2023-05-07T15:22:43.816Z,3.17
2023-05-07T15:25:32.248Z,2.60
2023-05-07T15:28:18.949Z,5.57
2023-05-07T15:31:06.951Z,3.40
2023-05-07T15:33:53.377Z,2.63
2023-05-07T15:36:39.817Z,2.40
2023-05-07T15:39:26.419Z,2.15
2023-05-07T15:42:13.253Z,2.28
2023-05-07T15:45:01.425Z,2.00
2023-05-07T15:47:48.758Z,2.95
2023-05-07T15:50:35.500Z,4.55
2023-05-07T15:53:22.910Z,2.70
2023-05-07T15:56:08.954Z,12.90
2023-05-07T15:58:56.245Z,7.20
2023-05-07T16:01:43.944Z,5.10
2023-05-07T16:04:30.440Z,2.53
2023-05-07T16:07:16.485Z,1.90
2023-05-07T16:10:06.450Z,2.30
2023-05-07T16:12:52.405Z,2.40
2023-05-07T16:15:39.733Z,2.08
2023-05-07T16:18:26.080Z,2.47
2023-05-07T16:21:13.151Z,3.30
2023-05-07T16:23:59.175Z,2.35
2023-05-07T16:26:45.746Z,2.72
2023-05-07T16:29:31.840Z,2.45
2023-05-07T16:32:18.687Z,3.03
2023-05-07T16:35:04.956Z,2.78
2023-05-07T16:37:51.223Z,3.60
2023-05-07T16:40:40.602Z,3.58
2023-05-07T16:43:27.421Z,3.60
2023-05-07T16:46:13.408Z,3.00
2023-05-07T16:48:59.978Z,2.70
2023-05-07T16:51:48.800Z,2.85
2023-05-07T16:54:37.060Z,2.70
2023-05-07T16:57:22.838Z,3.15
2023-05-07T17:00:11.721Z,3.45
2023-05-07T17:02:58.030Z,17.17
2023-05-07T17:05:44.354Z,3.95
2023-05-07T17:08:29.996Z,3.08
2023-05-07T17:11:16.583Z,3.50
2023-05-07T17:14:05.359Z,5.28
2023-05-07T17:16:52.139Z,2.92
2023-05-07T17:19:40.061Z,3.15
2023-05-07T17:22:27.154Z,3.58
2023-05-07T17:25:14.943Z,4.10
2023-05-07T17:28:02.018Z,3.95
2023-05-07T17:30:48.983Z,10.70
2023-05-07T17:33:35.241Z,4.43
2023-05-07T17:36:20.887Z,7.43
2023-05-07T17:39:07.205Z,8.23
2023-05-07T17:41:53.409Z,8.57
2023-05-07T17:44:40.108Z,7.43
2023-05-07T17:47:26.437Z,4.78
2023-05-07T17:50:14.115Z,11.65
2023-05-07T17:53:00.793Z,6.10
2023-05-07T17:55:47.959Z,8.60
2023-05-07T17:58:36.556Z,6.32
2023-05-07T18:01:27.958Z,4.85
2023-05-07T18:04:14.270Z,5.93
2023-05-07T18:07:00.538Z,8.20
2023-05-07T18:09:46.373Z,9.55
2023-05-07T18:12:32.895Z,10.38
2023-05-07T18:15:19.530Z,12.60
2023-05-07T18:18:06.065Z,12.63
2023-05-07T18:20:52.432Z,11.88
2023-05-07T18:23:38.651Z,9.05
2023-05-07T18:26:24.613Z,6.43
2023-05-07T18:29:13.688Z,7.97
2023-05-07T18:32:00.013Z,7.95
2023-05-07T18:34:46.763Z,10.90
2023-05-07T18:37:34.090Z,10.10
2023-05-07T18:40:21.224Z,14.55
2023-05-07T18:43:07.341Z,12.90
2023-05-07T18:45:53.907Z,12.35
2023-05-07T18:48:40.746Z,10.40
2023-05-07T18:51:27.330Z,8.90
2023-05-07T18:54:14.300Z,8.90
2023-05-07T18:57:01.249Z,11.43
2023-05-07T18:59:47.632Z,16.00
2023-05-07T19:02:34.194Z,17.77
2023-05-07T19:05:20.796Z,8.60
2023-05-07T19:08:07.204Z,7.80
2023-05-07T19:10:56.602Z,7.40
2023-05-07T19:13:43.595Z,6.57
2023-05-07T19:16:29.715Z,9.07
2023-05-07T19:19:16.221Z,9.75
2023-05-07T19:22:02.014Z,7.53
2023-05-07T19:24:48.628Z,7.38
2023-05-07T19:27:34.692Z,9.98
2023-05-07T19:30:21.622Z,10.55
2023-05-07T19:33:07.781Z,8.50
2023-05-07T19:35:58.353Z,6.60
2023-05-07T19:38:45.295Z,8.23
2023-05-07T19:41:31.360Z,7.53
2023-05-07T19:44:17.800Z,8.27
2023-05-07T19:47:05.812Z,7.47
2023-05-07T19:49:51.757Z,7.88
2023-05-07T19:52:38.609Z,7.65
2023-05-07T19:55:24.821Z,7.97
2023-05-07T19:58:11.384Z,8.13
2023-05-07T20:00:57.933Z,7.50
2023-05-07T20:03:45.097Z,8.02
2023-05-07T20:06:31.523Z,8.80
2023-05-07T20:09:17.868Z,8.77
2023-05-07T20:12:04.178Z,8.57
2023-05-07T20:14:50.746Z,9.35
2023-05-07T20:17:37.542Z,9.02
2023-05-07T20:20:25.651Z,9.30
2023-05-07T20:23:12.303Z,8.23
2023-05-07T20:25:59.086Z,8.50
2023-05-07T20:28:45.220Z,10.02
2023-05-07T20:31:32.493Z,10.45
2023-05-07T20:34:18.449Z,9.45
2023-05-07T20:37:06.034Z,9.13
2023-05-07T20:39:51.905Z,9.15
2023-05-07T20:42:38.449Z,8.93
2023-05-07T20:45:24.322Z,8.70
2023-05-07T20:48:11.031Z,9.45
2023-05-07T20:51:01.285Z,9.57
2023-05-07T20:53:48.111Z,11.10
2023-05-07T20:56:34.524Z,11.45
2023-05-07T20:59:20.769Z,11.43
2023-05-07T21:02:10.065Z,10.70
2023-05-07T21:04:56.493Z,9.85
2023-05-07T21:07:42.093Z,9.65
2023-05-07T21:10:28.776Z,9.00
2023-05-07T21:13:15.144Z,9.88
2023-05-07T21:16:01.297Z,10.43
2023-05-07T21:18:47.328Z,11.00
2023-05-07T21:21:34.182Z,10.63
2023-05-07T21:24:20.094Z,11.05
2023-05-07T21:27:06.712Z,11.32
2023-05-07T21:29:52.884Z,11.85
2023-05-07T21:32:39.335Z,12.00
2023-05-07T21:35:25.660Z,13.70
2023-05-07T21:38:14.786Z,14.45
2023-05-07T21:41:00.953Z,14.18
2023-05-07T21:43:47.616Z,13.63
2023-05-07T21:46:34.233Z,14.15
2023-05-07T21:49:20.731Z,13.88
2023-05-07T21:52:11.733Z,13.40
2023-05-07T21:54:58.124Z,13.43
2023-05-07T21:57:50.783Z,12.65
2023-05-07T22:00:44.545Z,12.75
2023-05-07T22:03:30.580Z,12.75
2023-05-07T22:06:21.851Z,14.27
2023-05-07T22:09:08.097Z,13.25
2023-05-07T22:11:55.218Z,14.35
2023-05-07T22:14:41.503Z,13.25
2023-05-07T22:17:28.190Z,14.20
2023-05-07T22:20:14.529Z,14.55
2023-05-07T22:23:01.116Z,13.40
2023-05-07T22:25:47.314Z,13.95
2023-05-07T22:28:34.562Z,14.50
2023-05-07T22:31:20.877Z,14.15
2023-05-07T22:34:07.143Z,15.25
2023-05-07T22:36:53.485Z,15.27
2023-05-07T22:39:42.029Z,15.32
2023-05-07T22:42:28.215Z,14.95
2023-05-07T22:45:14.340Z,14.60
2023-05-07T22:48:00.763Z,14.90
2023-05-07T22:50:46.945Z,14.23
2023-05-07T22:53:32.810Z,14.43
2023-05-07T22:56:19.179Z,15.07
2023-05-07T22:59:05.136Z,14.98
2023-05-07T23:01:52.074Z,16.58
2023-05-07T23:04:37.967Z,20.88
2023-05-07T23:07:24.605Z,34.35
2023-05-07T23:10:10.786Z,33.60
2023-05-07T23:12:57.150Z,25.98
2023-05-07T23:15:43.717Z,24.90
2023-05-07T23:18:32.596Z,21.48
2023-05-07T23:21:18.408Z,14.10
2023-05-07T23:24:05.076Z,11.98
2023-05-07T23:26:50.962Z,13.55
2023-05-07T23:29:37.454Z,11.23
2023-05-07T23:32:23.781Z,11.05
2023-05-07T23:35:10.279Z,12.63
2023-05-07T23:37:56.430Z,11.63
2023-05-07T23:40:42.870Z,11.73
2023-05-07T23:43:29.112Z,11.68
2023-05-07T23:46:15.740Z,14.10
2023-05-07T23:49:01.573Z,13.95
2023-05-07T23:51:48.310Z,12.85
2023-05-07T23:54:33.977Z,12.45
2023-05-07T23:57:20.700Z,12.40
